sensor_id;sensor_type;location;lat;lon;timestamp;temperature;humidity
57652;DHT22;43480;53.116;6.734;2022-07-23T00:00:27;14.90;99.90
57652;DHT22;43480;53.116;6.734;2022-07-23T00:02:53;14.90;99.90
57652;DHT22;43480;53.116;6.734;2022-07-23T00:05:18;14.90;99.90
57652;DHT22;43480;53.116;6.734;2022-07-23T00:07:44;14.90;99.90
57652;DHT22;43480;53.116;6.734;2022-07-23T00:10:09;14.90;99.90
57652;DHT22;43480;53.116;6.734;2022-07-23T00:12:35;14.90;99.90
57652;DHT22;43480;53.116;6.734;2022-07-23T00:15:01;14.90;99.90
57652;DHT22;43480;53.116;6.734;2022-07-23T00:17:27;14.90;99.90
57652;DHT22;43480;53.116;6.734;2022-07-23T00:19:53;14.80;99.90
57652;DHT22;43480;53.116;6.734;2022-07-23T00:22:19;14.80;99.90
57652;DHT22;43480;53.116;6.734;2022-07-23T00:24:44;14.80;99.90
57652;DHT22;43480;53.116;6.734;2022-07-23T00:27:10;14.80;99.90
57652;DHT22;43480;53.116;6.734;2022-07-23T00:29:35;14.70;99.90
57652;DHT22;43480;53.116;6.734;2022-07-23T00:32:01;14.80;99.90
57652;DHT22;43480;53.116;6.734;2022-07-23T00:34:26;14.70;99.90
57652;DHT22;43480;53.116;6.734;2022-07-23T00:36:52;14.60;99.90
57652;DHT22;43480;53.116;6.734;2022-07-23T00:39:19;14.60;99.90
57652;DHT22;43480;53.116;6.734;2022-07-23T00:41:44;14.60;99.90
57652;DHT22;43480;53.116;6.734;2022-07-23T00:44:14;14.60;99.90
57652;DHT22;43480;53.116;6.734;2022-07-23T00:46:44;14.50;99.90
57652;DHT22;43480;53.116;6.734;2022-07-23T00:49:10;14.60;99.90
57652;DHT22;43480;53.116;6.734;2022-07-23T00:51:35;14.50;99.90
57652;DHT22;43480;53.116;6.734;2022-07-23T00:54:01;14.50;99.90
57652;DHT22;43480;53.116;6.734;2022-07-23T00:56:26;14.50;99.90
57652;DHT22;43480;53.116;6.734;2022-07-23T00:58:52;14.50;99.90
57652;DHT22;43480;53.116;6.734;2022-07-23T01:01:17;14.40;99.90
57652;DHT22;43480;53.116;6.734;2022-07-23T01:03:43;14.40;99.90
57652;DHT22;43480;53.116;6.734;2022-07-23T01:06:08;14.40;99.90
57652;DHT22;43480;53.116;6.734;2022-07-23T01:08:34;14.40;99.90
57652;DHT22;43480;53.116;6.734;2022-07-23T01:11:00;14.30;99.90
57652;DHT22;43480;53.116;6.734;2022-07-23T01:13:25;14.30;99.90
57652;DHT22;43480;53.116;6.734;2022-07-23T01:15:51;14.30;99.90
57652;DHT22;43480;53.116;6.734;2022-07-23T01:18:16;14.30;99.90
57652;DHT22;43480;53.116;6.734;2022-07-23T01:20:42;14.30;99.90
57652;DHT22;43480;53.116;6.734;2022-07-23T01:23:07;14.30;99.90
57652;DHT22;43480;53.116;6.734;2022-07-23T01:25:33;14.30;99.90
57652;DHT22;43480;53.116;6.734;2022-07-23T01:27:59;14.20;99.90
57652;DHT22;43480;53.116;6.734;2022-07-23T01:30:24;14.30;99.90
57652;DHT22;43480;53.116;6.734;2022-07-23T01:32:50;14.30;99.90
57652;DHT22;43480;53.116;6.734;2022-07-23T01:35:15;14.30;99.90
57652;DHT22;43480;53.116;6.734;2022-07-23T01:37:41;14.30;99.90
57652;DHT22;43480;53.116;6.734;2022-07-23T01:40:07;14.20;99.90
57652;DHT22;43480;53.116;6.734;2022-07-23T01:42:32;14.20;99.90
57652;DHT22;43480;53.116;6.734;2022-07-23T01:44:58;14.20;99.90
57652;DHT22;43480;53.116;6.734;2022-07-23T01:47:23;14.20;99.90
57652;DHT22;43480;53.116;6.734;2022-07-23T01:49:49;14.20;99.90
57652;DHT22;43480;53.116;6.734;2022-07-23T01:52:14;14.20;99.90
57652;DHT22;43480;53.116;6.734;2022-07-23T01:54:40;14.20;99.90
57652;DHT22;43480;53.116;6.734;2022-07-23T01:57:06;14.10;99.90
57652;DHT22;43480;53.116;6.734;2022-07-23T01:59:33;14.10;99.90
57652;DHT22;43480;53.116;6.734;2022-07-23T02:01:58;14.10;99.90
57652;DHT22;43480;53.116;6.734;2022-07-23T02:04:24;14.00;99.90
57652;DHT22;43480;53.116;6.734;2022-07-23T02:06:50;13.90;99.90
57652;DHT22;43480;53.116;6.734;2022-07-23T02:09:16;13.90;99.90
57652;DHT22;43480;53.116;6.734;2022-07-23T02:11:42;13.70;99.90
57652;DHT22;43480;53.116;6.734;2022-07-23T02:14:07;13.60;99.90
57652;DHT22;43480;53.116;6.734;2022-07-23T02:16:34;13.60;99.90
57652;DHT22;43480;53.116;6.734;2022-07-23T02:18:59;13.50;99.90
57652;DHT22;43480;53.116;6.734;2022-07-23T02:21:25;13.40;99.90
57652;DHT22;43480;53.116;6.734;2022-07-23T02:23:51;13.30;99.90
57652;DHT22;43480;53.116;6.734;2022-07-23T02:26:16;13.30;99.90
57652;DHT22;43480;53.116;6.734;2022-07-23T02:28:42;13.30;99.90
57652;DHT22;43480;53.116;6.734;2022-07-23T02:31:07;13.30;99.90
57652;DHT22;43480;53.116;6.734;2022-07-23T02:33:33;13.20;99.90
57652;DHT22;43480;53.116;6.734;2022-07-23T02:35:58;13.20;99.90
57652;DHT22;43480;53.116;6.734;2022-07-23T02:38:24;13.10;99.90
57652;DHT22;43480;53.116;6.734;2022-07-23T02:40:50;13.10;99.90
57652;DHT22;43480;53.116;6.734;2022-07-23T02:43:15;13.00;99.90
57652;DHT22;43480;53.116;6.734;2022-07-23T02:45:41;13.00;99.90
57652;DHT22;43480;53.116;6.734;2022-07-23T02:48:06;12.90;99.90
57652;DHT22;43480;53.116;6.734;2022-07-23T02:50:32;12.80;99.90
57652;DHT22;43480;53.116;6.734;2022-07-23T02:52:57;12.90;99.90
57652;DHT22;43480;53.116;6.734;2022-07-23T02:55:23;12.90;99.90
57652;DHT22;43480;53.116;6.734;2022-07-23T02:57:49;12.90;99.90
57652;DHT22;43480;53.116;6.734;2022-07-23T03:00:14;12.90;99.90
57652;DHT22;43480;53.116;6.734;2022-07-23T03:02:40;12.90;99.90
57652;DHT22;43480;53.116;6.734;2022-07-23T03:05:05;12.90;99.90
57652;DHT22;43480;53.116;6.734;2022-07-23T03:07:31;12.90;99.90
57652;DHT22;43480;53.116;6.734;2022-07-23T03:09:56;12.90;99.90
57652;DHT22;43480;53.116;6.734;2022-07-23T03:12:22;12.90;99.90
57652;DHT22;43480;53.116;6.734;2022-07-23T03:14:47;12.90;99.90
57652;DHT22;43480;53.116;6.734;2022-07-23T03:17:13;13.00;99.90
57652;DHT22;43480;53.116;6.734;2022-07-23T03:19:38;13.00;99.90
57652;DHT22;43480;53.116;6.734;2022-07-23T03:22:04;13.00;99.90
57652;DHT22;43480;53.116;6.734;2022-07-23T03:24:30;13.00;99.90
57652;DHT22;43480;53.116;6.734;2022-07-23T03:27:14;13.10;99.90
57652;DHT22;43480;53.116;6.734;2022-07-23T03:29:39;13.10;99.90
57652;DHT22;43480;53.116;6.734;2022-07-23T03:32:05;13.10;99.90
57652;DHT22;43480;53.116;6.734;2022-07-23T03:34:31;13.20;99.90
57652;DHT22;43480;53.116;6.734;2022-07-23T03:36:56;13.10;99.90
57652;DHT22;43480;53.116;6.734;2022-07-23T03:39:22;13.10;99.90
57652;DHT22;43480;53.116;6.734;2022-07-23T03:41:47;13.20;99.90
57652;DHT22;43480;53.116;6.734;2022-07-23T03:44:12;13.20;99.90
57652;DHT22;43480;53.116;6.734;2022-07-23T03:46:38;13.20;99.90
57652;DHT22;43480;53.116;6.734;2022-07-23T03:49:03;13.20;99.90
57652;DHT22;43480;53.116;6.734;2022-07-23T03:51:29;13.20;99.90
57652;DHT22;43480;53.116;6.734;2022-07-23T03:53:54;13.10;99.90
57652;DHT22;43480;53.116;6.734;2022-07-23T03:56:20;13.20;99.90
57652;DHT22;43480;53.116;6.734;2022-07-23T03:58:46;13.20;99.90
57652;DHT22;43480;53.116;6.734;2022-07-23T04:01:12;13.20;99.90
57652;DHT22;43480;53.116;6.734;2022-07-23T04:03:37;13.20;99.90
57652;DHT22;43480;53.116;6.734;2022-07-23T04:06:03;13.20;99.90
57652;DHT22;43480;53.116;6.734;2022-07-23T04:08:28;13.20;99.90
57652;DHT22;43480;53.116;6.734;2022-07-23T04:10:54;13.10;99.90
57652;DHT22;43480;53.116;6.734;2022-07-23T04:13:20;13.20;99.90
57652;DHT22;43480;53.116;6.734;2022-07-23T04:15:45;13.20;99.90
57652;DHT22;43480;53.116;6.734;2022-07-23T04:18:11;13.10;99.90
57652;DHT22;43480;53.116;6.734;2022-07-23T04:20:36;13.10;99.90
57652;DHT22;43480;53.116;6.734;2022-07-23T04:23:02;13.20;99.90
57652;DHT22;43480;53.116;6.734;2022-07-23T04:25:27;13.20;99.90
57652;DHT22;43480;53.116;6.734;2022-07-23T04:27:53;13.30;99.90
57652;DHT22;43480;53.116;6.734;2022-07-23T04:30:19;13.30;99.90
57652;DHT22;43480;53.116;6.734;2022-07-23T04:32:44;13.40;99.90
57652;DHT22;43480;53.116;6.734;2022-07-23T04:35:10;13.40;99.90
57652;DHT22;43480;53.116;6.734;2022-07-23T04:37:35;13.50;99.90
57652;DHT22;43480;53.116;6.734;2022-07-23T04:40:01;13.60;99.90
57652;DHT22;43480;53.116;6.734;2022-07-23T04:42:26;13.60;99.90
57652;DHT22;43480;53.116;6.734;2022-07-23T04:44:52;13.70;99.90
57652;DHT22;43480;53.116;6.734;2022-07-23T04:47:17;13.70;99.90
57652;DHT22;43480;53.116;6.734;2022-07-23T04:49:43;13.80;99.90
57652;DHT22;43480;53.116;6.734;2022-07-23T04:52:08;13.80;99.90
57652;DHT22;43480;53.116;6.734;2022-07-23T04:54:34;13.80;99.90
57652;DHT22;43480;53.116;6.734;2022-07-23T04:56:59;13.80;99.90
57652;DHT22;43480;53.116;6.734;2022-07-23T04:59:25;13.80;99.90
57652;DHT22;43480;53.116;6.734;2022-07-23T05:01:50;13.90;99.90
57652;DHT22;43480;53.116;6.734;2022-07-23T05:04:16;13.90;99.90
57652;DHT22;43480;53.116;6.734;2022-07-23T05:06:41;14.00;99.90
57652;DHT22;43480;53.116;6.734;2022-07-23T05:09:07;14.00;99.90
57652;DHT22;43480;53.116;6.734;2022-07-23T05:11:32;14.00;99.90
57652;DHT22;43480;53.116;6.734;2022-07-23T05:13:58;14.00;99.90
57652;DHT22;43480;53.116;6.734;2022-07-23T05:16:23;14.00;99.90
57652;DHT22;43480;53.116;6.734;2022-07-23T05:18:49;14.00;99.90
57652;DHT22;43480;53.116;6.734;2022-07-23T05:21:14;14.00;99.90
57652;DHT22;43480;53.116;6.734;2022-07-23T05:23:40;14.00;99.90
57652;DHT22;43480;53.116;6.734;2022-07-23T05:26:05;14.10;99.90
57652;DHT22;43480;53.116;6.734;2022-07-23T05:28:31;14.20;99.90
57652;DHT22;43480;53.116;6.734;2022-07-23T05:30:56;14.20;99.90
57652;DHT22;43480;53.116;6.734;2022-07-23T05:33:22;14.30;99.90
57652;DHT22;43480;53.116;6.734;2022-07-23T05:35:47;14.30;99.90
57652;DHT22;43480;53.116;6.734;2022-07-23T05:38:13;14.40;99.90
57652;DHT22;43480;53.116;6.734;2022-07-23T05:40:38;14.40;99.90
57652;DHT22;43480;53.116;6.734;2022-07-23T05:43:04;14.40;99.90
57652;DHT22;43480;53.116;6.734;2022-07-23T05:45:29;14.50;99.90
57652;DHT22;43480;53.116;6.734;2022-07-23T05:47:55;14.50;99.90
57652;DHT22;43480;53.116;6.734;2022-07-23T05:50:20;14.50;99.90
57652;DHT22;43480;53.116;6.734;2022-07-23T05:52:46;14.50;99.90
57652;DHT22;43480;53.116;6.734;2022-07-23T05:55:12;14.50;99.90
57652;DHT22;43480;53.116;6.734;2022-07-23T05:57:38;14.50;99.90
57652;DHT22;43480;53.116;6.734;2022-07-23T06:00:04;14.50;99.90
57652;DHT22;43480;53.116;6.734;2022-07-23T06:02:31;14.60;99.90
57652;DHT22;43480;53.116;6.734;2022-07-23T06:04:56;14.80;99.90
57652;DHT22;43480;53.116;6.734;2022-07-23T06:07:22;14.80;99.90
57652;DHT22;43480;53.116;6.734;2022-07-23T06:09:47;14.80;99.90
57652;DHT22;43480;53.116;6.734;2022-07-23T06:12:15;14.80;99.90
57652;DHT22;43480;53.116;6.734;2022-07-23T06:14:40;14.80;99.90
57652;DHT22;43480;53.116;6.734;2022-07-23T06:17:06;14.80;99.90
57652;DHT22;43480;53.116;6.734;2022-07-23T06:19:31;14.90;99.90
57652;DHT22;43480;53.116;6.734;2022-07-23T06:21:57;15.00;99.90
57652;DHT22;43480;53.116;6.734;2022-07-23T06:24:22;15.10;99.90
57652;DHT22;43480;53.116;6.734;2022-07-23T06:26:48;15.20;99.90
57652;DHT22;43480;53.116;6.734;2022-07-23T06:29:13;15.20;99.90
57652;DHT22;43480;53.116;6.734;2022-07-23T06:31:39;15.30;99.90
57652;DHT22;43480;53.116;6.734;2022-07-23T06:34:04;15.40;99.90
57652;DHT22;43480;53.116;6.734;2022-07-23T06:36:30;15.60;99.90
57652;DHT22;43480;53.116;6.734;2022-07-23T06:38:55;15.80;99.90
57652;DHT22;43480;53.116;6.734;2022-07-23T06:41:21;15.90;99.90
57652;DHT22;43480;53.116;6.734;2022-07-23T06:43:48;15.90;99.90
57652;DHT22;43480;53.116;6.734;2022-07-23T06:46:13;16.00;99.90
57652;DHT22;43480;53.116;6.734;2022-07-23T06:48:39;16.10;99.90
57652;DHT22;43480;53.116;6.734;2022-07-23T06:51:04;16.00;99.90
57652;DHT22;43480;53.116;6.734;2022-07-23T06:53:30;16.00;99.90
57652;DHT22;43480;53.116;6.734;2022-07-23T06:55:55;16.10;99.90
57652;DHT22;43480;53.116;6.734;2022-07-23T06:58:21;16.10;99.90
57652;DHT22;43480;53.116;6.734;2022-07-23T07:00:47;16.10;99.90
57652;DHT22;43480;53.116;6.734;2022-07-23T07:03:12;16.20;99.90
57652;DHT22;43480;53.116;6.734;2022-07-23T07:05:38;16.20;99.90
57652;DHT22;43480;53.116;6.734;2022-07-23T07:08:05;16.30;99.90
57652;DHT22;43480;53.116;6.734;2022-07-23T07:10:30;16.40;99.90
57652;DHT22;43480;53.116;6.734;2022-07-23T07:12:56;16.50;99.90
57652;DHT22;43480;53.116;6.734;2022-07-23T07:15:22;16.60;99.90
57652;DHT22;43480;53.116;6.734;2022-07-23T07:17:47;16.70;99.90
57652;DHT22;43480;53.116;6.734;2022-07-23T07:20:13;16.80;99.90
57652;DHT22;43480;53.116;6.734;2022-07-23T07:22:38;16.90;99.90
57652;DHT22;43480;53.116;6.734;2022-07-23T07:25:04;17.00;99.90
57652;DHT22;43480;53.116;6.734;2022-07-23T07:27:30;17.00;99.90
57652;DHT22;43480;53.116;6.734;2022-07-23T07:29:55;17.00;99.90
57652;DHT22;43480;53.116;6.734;2022-07-23T07:32:21;17.00;99.90
57652;DHT22;43480;53.116;6.734;2022-07-23T07:34:46;16.90;99.90
57652;DHT22;43480;53.116;6.734;2022-07-23T07:37:12;16.90;99.90
57652;DHT22;43480;53.116;6.734;2022-07-23T07:39:37;17.00;99.90
57652;DHT22;43480;53.116;6.734;2022-07-23T07:42:03;17.00;99.90
57652;DHT22;43480;53.116;6.734;2022-07-23T07:44:28;16.90;99.90
57652;DHT22;43480;53.116;6.734;2022-07-23T07:46:54;16.90;99.90
57652;DHT22;43480;53.116;6.734;2022-07-23T07:49:19;17.00;99.90
57652;DHT22;43480;53.116;6.734;2022-07-23T07:51:45;17.30;99.90
57652;DHT22;43480;53.116;6.734;2022-07-23T07:54:11;17.60;99.90
57652;DHT22;43480;53.116;6.734;2022-07-23T07:56:37;17.90;99.90
57652;DHT22;43480;53.116;6.734;2022-07-23T07:59:02;18.00;99.90
57652;DHT22;43480;53.116;6.734;2022-07-23T08:01:28;18.10;99.90
57652;DHT22;43480;53.116;6.734;2022-07-23T08:03:53;17.90;99.90
57652;DHT22;43480;53.116;6.734;2022-07-23T08:06:19;17.80;99.90
57652;DHT22;43480;53.116;6.734;2022-07-23T08:08:44;17.70;99.90
57652;DHT22;43480;53.116;6.734;2022-07-23T08:11:10;17.80;99.90
57652;DHT22;43480;53.116;6.734;2022-07-23T08:13:35;17.70;99.90
57652;DHT22;43480;53.116;6.734;2022-07-23T08:16:01;17.70;99.90
57652;DHT22;43480;53.116;6.734;2022-07-23T08:18:27;17.80;99.90
57652;DHT22;43480;53.116;6.734;2022-07-23T08:20:52;17.80;99.90
57652;DHT22;43480;53.116;6.734;2022-07-23T08:23:18;17.80;99.90
57652;DHT22;43480;53.116;6.734;2022-07-23T08:25:44;17.70;99.90
57652;DHT22;43480;53.116;6.734;2022-07-23T08:28:11;17.70;99.90
57652;DHT22;43480;53.116;6.734;2022-07-23T08:30:37;17.90;99.90
57652;DHT22;43480;53.116;6.734;2022-07-23T08:33:03;18.20;99.90
57652;DHT22;43480;53.116;6.734;2022-07-23T08:35:31;18.40;99.90
57652;DHT22;43480;53.116;6.734;2022-07-23T08:37:56;18.50;99.90
57652;DHT22;43480;53.116;6.734;2022-07-23T08:40:23;18.40;99.90
57652;DHT22;43480;53.116;6.734;2022-07-23T08:42:50;18.20;99.90
57652;DHT22;43480;53.116;6.734;2022-07-23T08:45:17;18.00;99.90
57652;DHT22;43480;53.116;6.734;2022-07-23T08:47:43;18.00;99.90
57652;DHT22;43480;53.116;6.734;2022-07-23T08:50:09;18.10;99.90
57652;DHT22;43480;53.116;6.734;2022-07-23T08:52:35;18.30;99.90
57652;DHT22;43480;53.116;6.734;2022-07-23T08:55:01;18.70;99.90
57652;DHT22;43480;53.116;6.734;2022-07-23T08:57:26;19.00;99.90
57652;DHT22;43480;53.116;6.734;2022-07-23T08:59:52;18.90;99.90
57652;DHT22;43480;53.116;6.734;2022-07-23T09:02:18;18.90;99.90
57652;DHT22;43480;53.116;6.734;2022-07-23T09:04:43;19.10;99.90
57652;DHT22;43480;53.116;6.734;2022-07-23T09:07:08;19.30;99.90
57652;DHT22;43480;53.116;6.734;2022-07-23T09:09:34;19.40;99.90
57652;DHT22;43480;53.116;6.734;2022-07-23T09:14:40;19.60;99.90
57652;DHT22;43480;53.116;6.734;2022-07-23T09:17:12;19.50;99.90
57652;DHT22;43480;53.116;6.734;2022-07-23T09:19:38;19.40;99.90
57652;DHT22;43480;53.116;6.734;2022-07-23T09:22:20;19.20;99.90
57652;DHT22;43480;53.116;6.734;2022-07-23T09:27:53;19.10;99.90
57652;DHT22;43480;53.116;6.734;2022-07-23T09:30:18;19.00;99.90
57652;DHT22;43480;53.116;6.734;2022-07-23T09:32:43;19.00;99.90
57652;DHT22;43480;53.116;6.734;2022-07-23T09:35:09;19.00;99.90
57652;DHT22;43480;53.116;6.734;2022-07-23T09:37:35;19.30;99.90
57652;DHT22;43480;53.116;6.734;2022-07-23T09:40:07;19.50;99.90
57652;DHT22;43480;53.116;6.734;2022-07-23T09:42:33;19.60;99.90
57652;DHT22;43480;53.116;6.734;2022-07-23T09:44:59;19.70;99.90
57652;DHT22;43480;53.116;6.734;2022-07-23T09:47:26;19.80;99.90
57652;DHT22;43480;53.116;6.734;2022-07-23T09:50:08;19.80;99.90
57652;DHT22;43480;53.116;6.734;2022-07-23T09:52:35;19.80;99.90
57652;DHT22;43480;53.116;6.734;2022-07-23T09:55:02;19.90;99.90
57652;DHT22;43480;53.116;6.734;2022-07-23T09:57:28;19.90;99.90
57652;DHT22;43480;53.116;6.734;2022-07-23T09:59:55;19.90;99.90
57652;DHT22;43480;53.116;6.734;2022-07-23T10:02:22;20.00;99.90
57652;DHT22;43480;53.116;6.734;2022-07-23T10:04:48;20.10;99.90
57652;DHT22;43480;53.116;6.734;2022-07-23T10:07:16;20.30;99.90
57652;DHT22;43480;53.116;6.734;2022-07-23T10:09:42;20.30;99.60
57652;DHT22;43480;53.116;6.734;2022-07-23T10:12:10;20.20;99.90
57652;DHT22;43480;53.116;6.734;2022-07-23T10:14:35;20.00;99.90
57652;DHT22;43480;53.116;6.734;2022-07-23T10:17:02;19.90;99.90
57652;DHT22;43480;53.116;6.734;2022-07-23T10:19:29;19.90;99.90
57652;DHT22;43480;53.116;6.734;2022-07-23T10:21:56;20.00;99.90
57652;DHT22;43480;53.116;6.734;2022-07-23T10:29:51;20.40;99.90
57652;DHT22;43480;53.116;6.734;2022-07-23T10:35:26;20.60;99.90
57652;DHT22;43480;53.116;6.734;2022-07-23T10:37:49;20.60;99.90
57652;DHT22;43480;53.116;6.734;2022-07-23T10:40:17;20.40;99.90
57652;DHT22;43480;53.116;6.734;2022-07-23T10:42:46;20.20;99.90
57652;DHT22;43480;53.116;6.734;2022-07-23T10:47:47;19.90;99.90
57652;DHT22;43480;53.116;6.734;2022-07-23T10:50:31;19.90;99.90
57652;DHT22;43480;53.116;6.734;2022-07-23T10:58:00;20.00;99.90
57652;DHT22;43480;53.116;6.734;2022-07-23T11:00:27;20.10;99.90
57652;DHT22;43480;53.116;6.734;2022-07-23T11:02:56;20.00;99.90
57652;DHT22;43480;53.116;6.734;2022-07-23T11:05:25;20.00;99.90
57652;DHT22;43480;53.116;6.734;2022-07-23T11:11:11;20.00;99.90
57652;DHT22;43480;53.116;6.734;2022-07-23T11:31:54;19.80;99.90
57652;DHT22;43480;53.116;6.734;2022-07-23T11:34:32;19.70;99.90
57652;DHT22;43480;53.116;6.734;2022-07-23T11:37:02;19.70;99.90
57652;DHT22;43480;53.116;6.734;2022-07-23T11:39:28;19.80;99.90
57652;DHT22;43480;53.116;6.734;2022-07-23T11:41:54;20.00;99.90
57652;DHT22;43480;53.116;6.734;2022-07-23T11:44:26;20.10;99.90
57652;DHT22;43480;53.116;6.734;2022-07-23T11:46:56;20.10;99.90
57652;DHT22;43480;53.116;6.734;2022-07-23T11:49:22;20.00;99.90
57652;DHT22;43480;53.116;6.734;2022-07-23T11:52:01;20.00;99.90
57652;DHT22;43480;53.116;6.734;2022-07-23T11:54:28;20.10;99.90
57652;DHT22;43480;53.116;6.734;2022-07-23T11:56:56;20.00;99.90
57652;DHT22;43480;53.116;6.734;2022-07-23T11:59:22;20.10;99.90
57652;DHT22;43480;53.116;6.734;2022-07-23T12:01:58;20.20;99.90
57652;DHT22;43480;53.116;6.734;2022-07-23T12:07:26;21.00;99.90
57652;DHT22;43480;53.116;6.734;2022-07-23T12:09:52;21.50;99.90
57652;DHT22;43480;53.116;6.734;2022-07-23T12:12:18;22.10;99.70
57652;DHT22;43480;53.116;6.734;2022-07-23T12:14:57;22.40;98.50
57652;DHT22;43480;53.116;6.734;2022-07-23T12:17:30;22.60;99.40
57652;DHT22;43480;53.116;6.734;2022-07-23T12:19:57;22.90;99.20
57652;DHT22;43480;53.116;6.734;2022-07-23T12:22:23;23.30;97.20
57652;DHT22;43480;53.116;6.734;2022-07-23T12:24:53;23.50;95.70
57652;DHT22;43480;53.116;6.734;2022-07-23T12:27:22;23.30;94.80
57652;DHT22;43480;53.116;6.734;2022-07-23T12:29:48;22.80;93.80
57652;DHT22;43480;53.116;6.734;2022-07-23T12:32:18;22.40;96.00
57652;DHT22;43480;53.116;6.734;2022-07-23T12:34:44;22.20;95.30
57652;DHT22;43480;53.116;6.734;2022-07-23T12:37:28;21.90;96.30
57652;DHT22;43480;53.116;6.734;2022-07-23T12:39:54;22.00;97.00
57652;DHT22;43480;53.116;6.734;2022-07-23T12:42:20;22.40;97.60
57652;DHT22;43480;53.116;6.734;2022-07-23T12:47:30;23.10;96.70
57652;DHT22;43480;53.116;6.734;2022-07-23T12:49:55;23.80;97.60
57652;DHT22;43480;53.116;6.734;2022-07-23T12:52:21;24.40;97.10
57652;DHT22;43480;53.116;6.734;2022-07-23T12:54:46;24.90;93.90
57652;DHT22;43480;53.116;6.734;2022-07-23T12:57:12;24.90;90.80
57652;DHT22;43480;53.116;6.734;2022-07-23T12:59:37;24.80;92.50
57652;DHT22;43480;53.116;6.734;2022-07-23T13:02:03;25.20;93.60
57652;DHT22;43480;53.116;6.734;2022-07-23T13:04:29;25.30;90.00
57652;DHT22;43480;53.116;6.734;2022-07-23T13:06:57;24.70;86.60
57652;DHT22;43480;53.116;6.734;2022-07-23T13:09:25;23.90;86.60
57652;DHT22;43480;53.116;6.734;2022-07-23T13:11:51;23.20;90.70
57652;DHT22;43480;53.116;6.734;2022-07-23T13:14:17;22.70;91.90
57652;DHT22;43480;53.116;6.734;2022-07-23T13:16:43;22.50;94.40
57652;DHT22;43480;53.116;6.734;2022-07-23T13:19:09;22.60;93.80
57652;DHT22;43480;53.116;6.734;2022-07-23T13:21:35;23.10;94.50
57652;DHT22;43480;53.116;6.734;2022-07-23T13:24:00;23.40;93.20
57652;DHT22;43480;53.116;6.734;2022-07-23T13:26:26;23.90;91.90
57652;DHT22;43480;53.116;6.734;2022-07-23T13:28:52;24.50;91.00
57652;DHT22;43480;53.116;6.734;2022-07-23T13:31:17;24.30;90.30
57652;DHT22;43480;53.116;6.734;2022-07-23T13:33:43;24.40;90.40
57652;DHT22;43480;53.116;6.734;2022-07-23T13:36:08;24.80;92.00
57652;DHT22;43480;53.116;6.734;2022-07-23T13:38:34;25.20;86.70
57652;DHT22;43480;53.116;6.734;2022-07-23T13:40:59;25.50;86.80
57652;DHT22;43480;53.116;6.734;2022-07-23T13:43:25;25.80;83.10
57652;DHT22;43480;53.116;6.734;2022-07-23T13:45:51;26.00;82.40
57652;DHT22;43480;53.116;6.734;2022-07-23T13:48:17;26.30;80.70
57652;DHT22;43480;53.116;6.734;2022-07-23T13:50:43;26.80;78.90
57652;DHT22;43480;53.116;6.734;2022-07-23T13:53:10;27.20;78.80
57652;DHT22;43480;53.116;6.734;2022-07-23T13:55:36;27.10;73.60
57652;DHT22;43480;53.116;6.734;2022-07-23T13:58:02;26.60;72.50
57652;DHT22;43480;53.116;6.734;2022-07-23T14:00:28;26.20;73.30
57652;DHT22;43480;53.116;6.734;2022-07-23T14:02:55;26.30;72.40
57652;DHT22;43480;53.116;6.734;2022-07-23T14:05:21;26.40;72.70
57652;DHT22;43480;53.116;6.734;2022-07-23T14:07:47;26.60;70.20
57652;DHT22;43480;53.116;6.734;2022-07-23T14:10:15;26.90;70.60
57652;DHT22;43480;53.116;6.734;2022-07-23T14:12:41;27.00;68.90
57652;DHT22;43480;53.116;6.734;2022-07-23T14:15:07;26.60;71.00
57652;DHT22;43480;53.116;6.734;2022-07-23T14:17:36;26.20;72.50
57652;DHT22;43480;53.116;6.734;2022-07-23T14:20:03;26.20;69.70
57652;DHT22;43480;53.116;6.734;2022-07-23T14:22:28;26.70;70.90
57652;DHT22;43480;53.116;6.734;2022-07-23T14:24:54;26.70;67.50
57652;DHT22;43480;53.116;6.734;2022-07-23T14:27:20;26.60;73.10
57652;DHT22;43480;53.116;6.734;2022-07-23T14:29:45;26.60;70.60
57652;DHT22;43480;53.116;6.734;2022-07-23T14:32:11;26.40;75.20
57652;DHT22;43480;53.116;6.734;2022-07-23T14:34:36;26.70;77.40
57652;DHT22;43480;53.116;6.734;2022-07-23T14:37:02;27.30;74.60
57652;DHT22;43480;53.116;6.734;2022-07-23T14:39:27;27.70;73.20
57652;DHT22;43480;53.116;6.734;2022-07-23T14:41:53;27.70;72.00
57652;DHT22;43480;53.116;6.734;2022-07-23T14:44:19;27.70;67.10
57652;DHT22;43480;53.116;6.734;2022-07-23T14:46:45;27.40;66.60
57652;DHT22;43480;53.116;6.734;2022-07-23T14:49:10;27.00;65.80
57652;DHT22;43480;53.116;6.734;2022-07-23T14:51:36;27.10;67.70
57652;DHT22;43480;53.116;6.734;2022-07-23T14:54:02;27.40;64.90
57652;DHT22;43480;53.116;6.734;2022-07-23T14:56:27;27.70;67.30
57652;DHT22;43480;53.116;6.734;2022-07-23T14:58:53;27.30;64.90
57652;DHT22;43480;53.116;6.734;2022-07-23T15:01:21;26.70;66.60
57652;DHT22;43480;53.116;6.734;2022-07-23T15:03:47;26.30;67.90
57652;DHT22;43480;53.116;6.734;2022-07-23T15:06:13;26.00;70.10
57652;DHT22;43480;53.116;6.734;2022-07-23T15:08:38;26.20;72.00
57652;DHT22;43480;53.116;6.734;2022-07-23T15:11:04;26.70;71.50
57652;DHT22;43480;53.116;6.734;2022-07-23T15:13:30;27.50;68.30
57652;DHT22;43480;53.116;6.734;2022-07-23T15:15:55;27.90;64.70
57652;DHT22;43480;53.116;6.734;2022-07-23T15:18:21;27.60;64.70
57652;DHT22;43480;53.116;6.734;2022-07-23T15:20:46;27.60;63.90
57652;DHT22;43480;53.116;6.734;2022-07-23T15:23:12;27.90;63.00
57652;DHT22;43480;53.116;6.734;2022-07-23T15:25:38;28.30;64.60
57652;DHT22;43480;53.116;6.734;2022-07-23T15:28:03;28.60;65.40
57652;DHT22;43480;53.116;6.734;2022-07-23T15:30:29;28.90;62.40
57652;DHT22;43480;53.116;6.734;2022-07-23T15:32:54;29.10;60.90
57652;DHT22;43480;53.116;6.734;2022-07-23T15:35:20;29.00;60.50
57652;DHT22;43480;53.116;6.734;2022-07-23T15:37:46;28.80;60.10
57652;DHT22;43480;53.116;6.734;2022-07-23T15:40:11;28.90;60.80
57652;DHT22;43480;53.116;6.734;2022-07-23T15:42:37;28.90;59.60
57652;DHT22;43480;53.116;6.734;2022-07-23T15:45:03;28.60;58.50
57652;DHT22;43480;53.116;6.734;2022-07-23T15:47:28;27.60;59.80
57652;DHT22;43480;53.116;6.734;2022-07-23T15:49:54;27.20;62.40
57652;DHT22;43480;53.116;6.734;2022-07-23T15:52:19;26.60;63.60
57652;DHT22;43480;53.116;6.734;2022-07-23T15:54:45;26.10;64.20
57652;DHT22;43480;53.116;6.734;2022-07-23T15:57:10;25.60;65.50
57652;DHT22;43480;53.116;6.734;2022-07-23T15:59:37;25.40;67.20
57652;DHT22;43480;53.116;6.734;2022-07-23T16:02:02;25.40;67.30
57652;DHT22;43480;53.116;6.734;2022-07-23T16:04:28;25.40;68.40
57652;DHT22;43480;53.116;6.734;2022-07-23T16:06:54;25.50;68.90
57652;DHT22;43480;53.116;6.734;2022-07-23T16:09:19;25.70;68.40
57652;DHT22;43480;53.116;6.734;2022-07-23T16:11:45;25.90;67.00